TimeCDT,TemperatureF,Dew PointF,Humidity,Sea Level PressureIn,VisibilityMPH,Wind Direction,Wind SpeedMPH,Gust SpeedMPH,PrecipitationIn,Events,Conditions,WindDirDegrees,DateUTC
12:54 AM,28.0,24.1,85,30.22,10.0,NNW,10.4,-,N/A,,Mostly Cloudy,340,2012-11-01 05:54:00
1:54 AM,25.0,23.0,92,30.22,10.0,Calm,Calm,-,N/A,,Clear,0,2012-11-01 06:54:00
2:54 AM,23.0,21.0,92,30.22,10.0,NNW,5.8,-,N/A,,Clear,340,2012-11-01 07:54:00
3:54 AM,21.9,19.0,89,30.22,10.0,NNW,6.9,-,N/A,,Clear,330,2012-11-01 08:54:00
4:45 AM,24.8,21.2,86,30.13,10.0,NW,3.5,-,N/A,,Mostly Cloudy,320,2012-11-01 09:45:00
4:54 AM,24.8,21.2,86,30.13,10.0,NNW,4.6,-,N/A,,Mostly Cloudy,340,2012-11-01 09:54:00
5:02 AM,24.8,21.2,86,30.13,10.0,North,4.6,-,N/A,,Scattered Clouds,350,2012-11-01 10:02:00
5:24 AM,24.8,21.2,86,30.14,10.0,NNW,4.6,-,N/A,,Mostly Cloudy,340,2012-11-01 10:24:00
5:54 AM,24.1,21.9,91,30.21,10.0,NNW,4.6,-,N/A,,Overcast,340,2012-11-01 10:54:00
6:37 AM,24.8,21.2,86,30.14,10.0,North,4.6,-,N/A,,Overcast,350,2012-11-01 11:37:00
6:54 AM,25.0,21.9,88,30.21,10.0,North,5.8,-,N/A,,Overcast,360,2012-11-01 11:54:00
7:54 AM,26.6,24.8,93,30.14,10.0,NE,5.8,-,N/A,,Overcast,50,2012-11-01 12:54:00
8:54 AM,27.0,24.1,89,30.21,10.0,East,8.1,-,N/A,,Overcast,80,2012-11-01 13:54:00
9:54 AM,26.6,24.8,93,30.14,10.0,East,12.7,-,N/A,,Overcast,90,2012-11-01 14:54:00
10:54 AM,26.1,23.0,88,30.21,10.0,East,13.8,-,N/A,,Overcast,90,2012-11-01 15:54:00
11:54 AM,28.4,24.8,86,30.12,10.0,East,11.5,-,N/A,,Overcast,90,2012-11-01 16:54:00
12:06 PM,28.4,24.8,86,30.12,10.0,East,10.4,-,N/A,,Overcast,90,2012-11-01 17:06:00
12:54 PM,28.9,23.0,78,30.19,10.0,East,9.2,-,N/A,,Overcast,100,2012-11-01 17:54:00
1:54 PM,28.9,23.0,78,30.17,10.0,ESE,12.7,-,N/A,,Overcast,110,2012-11-01 18:54:00
2:54 PM,30.0,24.1,79,30.16,10.0,East,12.7,-,N/A,,Overcast,90,2012-11-01 19:54:00
3:34 PM,30.2,23.0,75,30.06,10.0,ENE,10.4,-,N/A,,Mostly Cloudy,70,2012-11-01 20:34:00
3:41 PM,32.0,23.0,69,30.05,10.0,ESE,10.4,-,N/A,,Scattered Clouds,110,2012-11-01 20:41:00
3:54 PM,32.0,23.0,69,30.13,10.0,East,13.8,-,N/A,,Partly Cloudy,80,2012-11-01 20:54:00
4:54 PM,30.0,21.9,72,30.12,10.0,East,13.8,-,N/A,,Clear,90,2012-11-01 21:54:00
5:54 PM,28.9,21.9,75,30.13,10.0,East,12.7,-,N/A,,Clear,80,2012-11-01 22:54:00
6:54 PM,28.0,21.9,78,30.13,10.0,ENE,12.7,-,N/A,,Clear,70,2012-11-01 23:54:00
7:54 PM,27.0,21.0,78,30.13,10.0,East,12.7,20.7,N/A,,Clear,80,2012-11-02 00:54:00
8:54 PM,27.0,21.0,78,30.13,10.0,East,12.7,-,N/A,,Partly Cloudy,80,2012-11-02 01:54:00
9:12 PM,26.6,21.2,80,30.06,10.0,East,10.4,-,N/A,,Mostly Cloudy,90,2012-11-02 02:12:00
9:54 PM,27.0,21.9,81,30.14,10.0,East,12.7,-,N/A,,Overcast,90,2012-11-02 02:54:00
10:20 PM,26.6,21.2,80,30.05,10.0,East,13.8,-,N/A,,Mostly Cloudy,90,2012-11-02 03:20:00
10:54 PM,26.1,21.0,81,30.12,10.0,East,13.8,-,N/A,,Scattered Clouds,90,2012-11-02 03:54:00
11:10 PM,26.6,21.2,80,30.05,10.0,East,16.1,21.9,N/A,,Mostly Cloudy,90,2012-11-02 04:10:00
11:54 PM,26.1,21.9,84,30.14,10.0,East,10.4,-,N/A,,Overcast,90,2012-11-02 04:54:00